sensor_id;sensor_type;location;lat;lon;timestamp;temperature;humidity
6110;DHT22;3085;49.444;11.054;2023-07-13T00:01:55;22.40;99.90
6110;DHT22;3085;49.444;11.054;2023-07-13T00:04:25;22.50;99.90
6110;DHT22;3085;49.444;11.054;2023-07-13T00:06:53;22.40;99.90
6110;DHT22;3085;49.444;11.054;2023-07-13T00:09:21;22.40;99.90
6110;DHT22;3085;49.444;11.054;2023-07-13T00:11:51;22.30;99.90
6110;DHT22;3085;49.444;11.054;2023-07-13T00:14:19;22.40;99.90
6110;DHT22;3085;49.444;11.054;2023-07-13T00:16:58;22.50;99.90
6110;DHT22;3085;49.444;11.054;2023-07-13T00:19:31;22.40;99.90
6110;DHT22;3085;49.444;11.054;2023-07-13T00:21:58;22.30;99.90
6110;DHT22;3085;49.444;11.054;2023-07-13T00:24:26;22.30;99.90
6110;DHT22;3085;49.444;11.054;2023-07-13T00:29:41;21.60;99.90
6110;DHT22;3085;49.444;11.054;2023-07-13T00:32:08;22.30;99.90
6110;DHT22;3085;49.444;11.054;2023-07-13T00:34:53;22.40;99.90
6110;DHT22;3085;49.444;11.054;2023-07-13T00:37:20;22.20;99.90
6110;DHT22;3085;49.444;11.054;2023-07-13T00:39:48;21.10;99.90
6110;DHT22;3085;49.444;11.054;2023-07-13T00:42:24;22.30;99.90
6110;DHT22;3085;49.444;11.054;2023-07-13T00:45:07;22.20;99.90
6110;DHT22;3085;49.444;11.054;2023-07-13T00:47:35;22.20;99.90
6110;DHT22;3085;49.444;11.054;2023-07-13T00:50:06;22.10;99.90
6110;DHT22;3085;49.444;11.054;2023-07-13T00:52:45;22.20;99.90
6110;DHT22;3085;49.444;11.054;2023-07-13T00:55:14;22.50;99.90
6110;DHT22;3085;49.444;11.054;2023-07-13T00:57:44;22.20;99.90
6110;DHT22;3085;49.444;11.054;2023-07-13T01:00:22;22.20;99.90
6110;DHT22;3085;49.444;11.054;2023-07-13T01:02:55;22.20;99.90
6110;DHT22;3085;49.444;11.054;2023-07-13T01:05:25;21.80;99.90
6110;DHT22;3085;49.444;11.054;2023-07-13T01:07:53;22.10;99.90
6110;DHT22;3085;49.444;11.054;2023-07-13T01:10:23;22.90;99.90
6110;DHT22;3085;49.444;11.054;2023-07-13T01:12:52;22.10;99.90
6110;DHT22;3085;49.444;11.054;2023-07-13T01:15:35;22.10;99.90
6110;DHT22;3085;49.444;11.054;2023-07-13T01:18:04;22.00;99.90
6110;DHT22;3085;49.444;11.054;2023-07-13T01:20:34;22.00;99.90
6110;DHT22;3085;49.444;11.054;2023-07-13T01:23:10;22.30;99.90
6110;DHT22;3085;49.444;11.054;2023-07-13T01:25:40;22.10;99.90
6110;DHT22;3085;49.444;11.054;2023-07-13T01:28:08;21.60;99.90
6110;DHT22;3085;49.444;11.054;2023-07-13T01:30:36;22.00;99.90
6110;DHT22;3085;49.444;11.054;2023-07-13T01:33:06;23.40;99.90
6110;DHT22;3085;49.444;11.054;2023-07-13T01:35:35;22.00;99.90
6110;DHT22;3085;49.444;11.054;2023-07-13T01:38:03;21.90;99.90
6110;DHT22;3085;49.444;11.054;2023-07-13T01:40:33;21.80;99.90
6110;DHT22;3085;49.444;11.054;2023-07-13T01:43:01;22.60;99.90
6110;DHT22;3085;49.444;11.054;2023-07-13T01:45:28;21.80;99.90
6110;DHT22;3085;49.444;11.054;2023-07-13T01:47:55;21.70;99.90
6110;DHT22;3085;49.444;11.054;2023-07-13T01:50:23;21.70;99.90
6110;DHT22;3085;49.444;11.054;2023-07-13T01:52:50;21.60;99.90
6110;DHT22;3085;49.444;11.054;2023-07-13T01:55:17;21.60;99.90
6110;DHT22;3085;49.444;11.054;2023-07-13T01:57:45;21.60;99.90
6110;DHT22;3085;49.444;11.054;2023-07-13T02:00:13;21.50;99.90
6110;DHT22;3085;49.444;11.054;2023-07-13T02:02:40;21.50;99.90
6110;DHT22;3085;49.444;11.054;2023-07-13T02:05:08;21.40;99.90
6110;DHT22;3085;49.444;11.054;2023-07-13T02:07:34;21.40;99.90
6110;DHT22;3085;49.444;11.054;2023-07-13T02:10:01;21.30;99.90
6110;DHT22;3085;49.444;11.054;2023-07-13T02:12:28;21.30;99.90
6110;DHT22;3085;49.444;11.054;2023-07-13T02:14:56;21.40;99.90
6110;DHT22;3085;49.444;11.054;2023-07-13T02:17:23;21.30;99.90
6110;DHT22;3085;49.444;11.054;2023-07-13T02:19:49;21.20;99.90
6110;DHT22;3085;49.444;11.054;2023-07-13T02:22:16;21.00;99.90
6110;DHT22;3085;49.444;11.054;2023-07-13T02:24:43;20.90;99.90
6110;DHT22;3085;49.444;11.054;2023-07-13T02:27:10;20.90;99.90
6110;DHT22;3085;49.444;11.054;2023-07-13T02:29:37;20.80;99.90
6110;DHT22;3085;49.444;11.054;2023-07-13T02:32:05;20.70;99.90
6110;DHT22;3085;49.444;11.054;2023-07-13T02:34:33;20.80;99.90
6110;DHT22;3085;49.444;11.054;2023-07-13T02:37:00;20.80;99.90
6110;DHT22;3085;49.444;11.054;2023-07-13T02:39:27;20.70;99.90
6110;DHT22;3085;49.444;11.054;2023-07-13T02:41:53;20.60;99.90
6110;DHT22;3085;49.444;11.054;2023-07-13T02:44:20;20.60;99.90
6110;DHT22;3085;49.444;11.054;2023-07-13T02:46:47;20.60;99.90
6110;DHT22;3085;49.444;11.054;2023-07-13T02:49:15;20.60;99.90
6110;DHT22;3085;49.444;11.054;2023-07-13T02:51:42;20.50;99.90
6110;DHT22;3085;49.444;11.054;2023-07-13T02:54:09;20.50;99.90
6110;DHT22;3085;49.444;11.054;2023-07-13T02:56:37;20.50;99.90
6110;DHT22;3085;49.444;11.054;2023-07-13T02:59:04;20.50;99.90
6110;DHT22;3085;49.444;11.054;2023-07-13T03:01:31;20.60;99.90
6110;DHT22;3085;49.444;11.054;2023-07-13T03:04:00;20.40;99.90
6110;DHT22;3085;49.444;11.054;2023-07-13T03:06:28;20.40;99.90
6110;DHT22;3085;49.444;11.054;2023-07-13T03:08:57;20.60;99.90
6110;DHT22;3085;49.444;11.054;2023-07-13T03:11:23;20.50;99.90
6110;DHT22;3085;49.444;11.054;2023-07-13T03:13:50;20.50;99.90
6110;DHT22;3085;49.444;11.054;2023-07-13T03:16:17;20.40;99.90
6110;DHT22;3085;49.444;11.054;2023-07-13T03:18:43;20.30;99.90
6110;DHT22;3085;49.444;11.054;2023-07-13T03:21:10;20.30;99.90
6110;DHT22;3085;49.444;11.054;2023-07-13T03:23:39;20.20;99.90
6110;DHT22;3085;49.444;11.054;2023-07-13T03:26:08;20.20;99.90
6110;DHT22;3085;49.444;11.054;2023-07-13T03:28:35;20.20;99.90
6110;DHT22;3085;49.444;11.054;2023-07-13T03:31:03;20.10;99.90
6110;DHT22;3085;49.444;11.054;2023-07-13T03:33:31;20.00;99.90
6110;DHT22;3085;49.444;11.054;2023-07-13T03:35:57;19.90;99.90
6110;DHT22;3085;49.444;11.054;2023-07-13T03:38:24;19.90;99.90
6110;DHT22;3085;49.444;11.054;2023-07-13T03:40:53;20.00;99.90
6110;DHT22;3085;49.444;11.054;2023-07-13T03:43:19;19.80;99.90
6110;DHT22;3085;49.444;11.054;2023-07-13T03:45:47;19.70;99.90
6110;DHT22;3085;49.444;11.054;2023-07-13T03:48:14;19.70;99.90
6110;DHT22;3085;49.444;11.054;2023-07-13T03:50:41;19.60;99.90
6110;DHT22;3085;49.444;11.054;2023-07-13T03:53:08;19.50;99.90
6110;DHT22;3085;49.444;11.054;2023-07-13T03:55:35;19.40;99.90
6110;DHT22;3085;49.444;11.054;2023-07-13T03:58:25;19.50;99.90
6110;DHT22;3085;49.444;11.054;2023-07-13T04:00:52;19.50;99.90
6110;DHT22;3085;49.444;11.054;2023-07-13T04:03:18;19.50;99.90
6110;DHT22;3085;49.444;11.054;2023-07-13T04:05:45;19.40;99.90
6110;DHT22;3085;49.444;11.054;2023-07-13T04:08:12;19.30;99.90
6110;DHT22;3085;49.444;11.054;2023-07-13T04:10:39;19.50;99.90
6110;DHT22;3085;49.444;11.054;2023-07-13T04:13:06;19.50;99.90
6110;DHT22;3085;49.444;11.054;2023-07-13T04:15:34;19.30;99.90
6110;DHT22;3085;49.444;11.054;2023-07-13T04:18:01;19.40;99.90
6110;DHT22;3085;49.444;11.054;2023-07-13T04:20:29;19.30;99.90
6110;DHT22;3085;49.444;11.054;2023-07-13T04:22:56;19.50;99.90
6110;DHT22;3085;49.444;11.054;2023-07-13T04:25:24;19.40;99.90
6110;DHT22;3085;49.444;11.054;2023-07-13T04:27:50;19.40;99.90
6110;DHT22;3085;49.444;11.054;2023-07-13T04:30:17;19.40;99.90
6110;DHT22;3085;49.444;11.054;2023-07-13T04:32:46;19.50;99.90
6110;DHT22;3085;49.444;11.054;2023-07-13T04:35:14;19.40;99.90
6110;DHT22;3085;49.444;11.054;2023-07-13T04:37:41;19.40;99.90
6110;DHT22;3085;49.444;11.054;2023-07-13T04:40:08;19.40;99.90
6110;DHT22;3085;49.444;11.054;2023-07-13T04:42:37;19.50;99.90
6110;DHT22;3085;49.444;11.054;2023-07-13T04:45:05;19.60;99.90
6110;DHT22;3085;49.444;11.054;2023-07-13T04:47:32;19.40;99.90
6110;DHT22;3085;49.444;11.054;2023-07-13T04:50:00;19.20;99.90
6110;DHT22;3085;49.444;11.054;2023-07-13T04:52:27;19.10;99.90
6110;DHT22;3085;49.444;11.054;2023-07-13T04:54:53;19.30;99.90
6110;DHT22;3085;49.444;11.054;2023-07-13T04:57:20;19.20;99.90
6110;DHT22;3085;49.444;11.054;2023-07-13T04:59:47;19.20;99.90
6110;DHT22;3085;49.444;11.054;2023-07-13T05:02:14;19.50;99.90
6110;DHT22;3085;49.444;11.054;2023-07-13T05:04:41;19.20;99.90
6110;DHT22;3085;49.444;11.054;2023-07-13T05:07:09;19.20;99.90
6110;DHT22;3085;49.444;11.054;2023-07-13T05:09:36;19.20;99.90
6110;DHT22;3085;49.444;11.054;2023-07-13T05:12:03;20.00;99.90
6110;DHT22;3085;49.444;11.054;2023-07-13T05:14:30;19.20;99.90
6110;DHT22;3085;49.444;11.054;2023-07-13T05:16:57;19.20;99.90
6110;DHT22;3085;49.444;11.054;2023-07-13T05:19:24;19.10;99.90
6110;DHT22;3085;49.444;11.054;2023-07-13T05:21:51;19.20;99.90
6110;DHT22;3085;49.444;11.054;2023-07-13T05:24:19;19.30;99.90
6110;DHT22;3085;49.444;11.054;2023-07-13T05:26:45;19.40;99.90
6110;DHT22;3085;49.444;11.054;2023-07-13T05:29:12;19.50;99.90
6110;DHT22;3085;49.444;11.054;2023-07-13T05:31:39;19.50;99.90
6110;DHT22;3085;49.444;11.054;2023-07-13T05:34:06;19.40;99.90
6110;DHT22;3085;49.444;11.054;2023-07-13T05:36:32;19.50;99.90
6110;DHT22;3085;49.444;11.054;2023-07-13T05:38:59;19.50;99.90
6110;DHT22;3085;49.444;11.054;2023-07-13T05:41:27;19.60;99.90
6110;DHT22;3085;49.444;11.054;2023-07-13T05:43:54;19.60;99.90
6110;DHT22;3085;49.444;11.054;2023-07-13T05:46:21;19.70;99.90
6110;DHT22;3085;49.444;11.054;2023-07-13T05:48:48;19.70;99.90
6110;DHT22;3085;49.444;11.054;2023-07-13T05:51:15;19.80;99.90
6110;DHT22;3085;49.444;11.054;2023-07-13T05:53:41;19.90;99.90
6110;DHT22;3085;49.444;11.054;2023-07-13T05:56:08;19.80;99.90
6110;DHT22;3085;49.444;11.054;2023-07-13T05:58:37;19.80;99.90
6110;DHT22;3085;49.444;11.054;2023-07-13T06:01:06;19.80;99.90
6110;DHT22;3085;49.444;11.054;2023-07-13T06:03:33;20.00;99.90
6110;DHT22;3085;49.444;11.054;2023-07-13T06:06:00;20.10;99.90
6110;DHT22;3085;49.444;11.054;2023-07-13T06:08:27;20.10;99.90
6110;DHT22;3085;49.444;11.054;2023-07-13T06:10:54;20.00;99.90
6110;DHT22;3085;49.444;11.054;2023-07-13T06:13:21;19.80;99.90
6110;DHT22;3085;49.444;11.054;2023-07-13T06:15:50;19.80;99.90
6110;DHT22;3085;49.444;11.054;2023-07-13T06:18:16;20.00;99.90
6110;DHT22;3085;49.444;11.054;2023-07-13T06:20:43;20.00;99.90
6110;DHT22;3085;49.444;11.054;2023-07-13T06:23:10;20.00;99.90
6110;DHT22;3085;49.444;11.054;2023-07-13T06:25:37;20.00;99.90
6110;DHT22;3085;49.444;11.054;2023-07-13T06:28:04;20.10;99.90
6110;DHT22;3085;49.444;11.054;2023-07-13T06:30:30;20.20;99.90
6110;DHT22;3085;49.444;11.054;2023-07-13T06:32:59;20.00;99.90
6110;DHT22;3085;49.444;11.054;2023-07-13T06:35:25;20.10;99.90
6110;DHT22;3085;49.444;11.054;2023-07-13T06:37:52;20.20;99.90
6110;DHT22;3085;49.444;11.054;2023-07-13T06:40:19;20.20;99.90
6110;DHT22;3085;49.444;11.054;2023-07-13T06:42:45;20.30;99.90
6110;DHT22;3085;49.444;11.054;2023-07-13T06:45:12;20.30;99.90
6110;DHT22;3085;49.444;11.054;2023-07-13T06:47:39;20.30;99.90
6110;DHT22;3085;49.444;11.054;2023-07-13T06:50:09;20.20;99.90
6110;DHT22;3085;49.444;11.054;2023-07-13T06:52:36;20.30;99.90
6110;DHT22;3085;49.444;11.054;2023-07-13T06:55:03;20.10;99.90
6110;DHT22;3085;49.444;11.054;2023-07-13T06:57:30;20.20;99.90
6110;DHT22;3085;49.444;11.054;2023-07-13T06:59:56;20.30;99.90
6110;DHT22;3085;49.444;11.054;2023-07-13T07:02:23;20.20;99.90
6110;DHT22;3085;49.444;11.054;2023-07-13T07:04:50;20.20;99.90
6110;DHT22;3085;49.444;11.054;2023-07-13T07:07:18;20.30;99.90
6110;DHT22;3085;49.444;11.054;2023-07-13T07:09:45;20.40;99.90
6110;DHT22;3085;49.444;11.054;2023-07-13T07:12:12;19.10;99.90
6110;DHT22;3085;49.444;11.054;2023-07-13T07:14:38;20.50;99.90
6110;DHT22;3085;49.444;11.054;2023-07-13T07:17:05;20.60;99.90
6110;DHT22;3085;49.444;11.054;2023-07-13T07:19:32;20.70;99.90
6110;DHT22;3085;49.444;11.054;2023-07-13T07:22:00;20.60;99.90
6110;DHT22;3085;49.444;11.054;2023-07-13T07:24:28;20.60;99.90
6110;DHT22;3085;49.444;11.054;2023-07-13T07:26:54;20.80;99.90
6110;DHT22;3085;49.444;11.054;2023-07-13T07:29:21;20.80;99.90
6110;DHT22;3085;49.444;11.054;2023-07-13T07:31:51;20.80;99.90
6110;DHT22;3085;49.444;11.054;2023-07-13T07:34:18;21.00;99.90
6110;DHT22;3085;49.444;11.054;2023-07-13T07:36:45;20.90;99.90
6110;DHT22;3085;49.444;11.054;2023-07-13T07:39:12;21.00;99.90
6110;DHT22;3085;49.444;11.054;2023-07-13T07:41:40;21.20;99.90
6110;DHT22;3085;49.444;11.054;2023-07-13T07:44:07;21.40;99.90
6110;DHT22;3085;49.444;11.054;2023-07-13T07:46:35;21.20;99.90
6110;DHT22;3085;49.444;11.054;2023-07-13T07:49:02;21.20;99.90
6110;DHT22;3085;49.444;11.054;2023-07-13T07:51:29;21.20;99.90
6110;DHT22;3085;49.444;11.054;2023-07-13T07:53:56;21.10;99.90
6110;DHT22;3085;49.444;11.054;2023-07-13T07:56:23;21.30;99.90
6110;DHT22;3085;49.444;11.054;2023-07-13T07:58:51;21.20;99.90
6110;DHT22;3085;49.444;11.054;2023-07-13T08:01:19;21.10;99.90
6110;DHT22;3085;49.444;11.054;2023-07-13T08:03:45;21.20;99.90
6110;DHT22;3085;49.444;11.054;2023-07-13T08:06:12;21.30;99.90
6110;DHT22;3085;49.444;11.054;2023-07-13T08:08:39;21.50;99.90
6110;DHT22;3085;49.444;11.054;2023-07-13T08:11:07;21.50;99.90
6110;DHT22;3085;49.444;11.054;2023-07-13T08:13:35;21.70;99.90
6110;DHT22;3085;49.444;11.054;2023-07-13T08:16:04;21.80;99.90
6110;DHT22;3085;49.444;11.054;2023-07-13T08:18:31;21.90;99.90
6110;DHT22;3085;49.444;11.054;2023-07-13T08:20:58;21.80;99.90
6110;DHT22;3085;49.444;11.054;2023-07-13T08:23:25;21.80;99.90
6110;DHT22;3085;49.444;11.054;2023-07-13T08:25:52;21.70;99.90
6110;DHT22;3085;49.444;11.054;2023-07-13T08:28:19;21.70;99.90
6110;DHT22;3085;49.444;11.054;2023-07-13T08:30:47;21.90;99.90
6110;DHT22;3085;49.444;11.054;2023-07-13T08:33:16;22.10;99.90
6110;DHT22;3085;49.444;11.054;2023-07-13T08:35:45;22.10;99.30
6110;DHT22;3085;49.444;11.054;2023-07-13T08:38:13;22.10;99.10
6110;DHT22;3085;49.444;11.054;2023-07-13T08:40:40;21.90;99.90
6110;DHT22;3085;49.444;11.054;2023-07-13T08:43:15;22.10;99.90
6110;DHT22;3085;49.444;11.054;2023-07-13T08:45:44;22.60;99.90
6110;DHT22;3085;49.444;11.054;2023-07-13T08:48:18;22.40;98.70
6110;DHT22;3085;49.444;11.054;2023-07-13T08:50:49;22.50;97.90
6110;DHT22;3085;49.444;11.054;2023-07-13T08:53:18;22.40;96.90
6110;DHT22;3085;49.444;11.054;2023-07-13T08:55:45;22.60;97.20
6110;DHT22;3085;49.444;11.054;2023-07-13T08:58:14;22.30;97.50
6110;DHT22;3085;49.444;11.054;2023-07-13T09:00:47;22.30;97.00
6110;DHT22;3085;49.444;11.054;2023-07-13T09:03:23;22.20;96.90
6110;DHT22;3085;49.444;11.054;2023-07-13T09:05:54;22.50;97.20
6110;DHT22;3085;49.444;11.054;2023-07-13T09:08:43;22.50;97.00
6110;DHT22;3085;49.444;11.054;2023-07-13T09:11:23;22.50;96.90
6110;DHT22;3085;49.444;11.054;2023-07-13T09:14:01;22.10;96.90
6110;DHT22;3085;49.444;11.054;2023-07-13T09:16:31;22.10;97.50
6110;DHT22;3085;49.444;11.054;2023-07-13T09:19:04;22.40;97.80
6110;DHT22;3085;49.444;11.054;2023-07-13T09:21:33;22.10;96.60
6110;DHT22;3085;49.444;11.054;2023-07-13T09:24:25;22.10;97.10
6110;DHT22;3085;49.444;11.054;2023-07-13T09:26:54;22.30;96.20
6110;DHT22;3085;49.444;11.054;2023-07-13T09:29:27;22.50;96.30
6110;DHT22;3085;49.444;11.054;2023-07-13T09:31:58;22.50;96.10
6110;DHT22;3085;49.444;11.054;2023-07-13T09:34:28;22.70;96.30
6110;DHT22;3085;49.444;11.054;2023-07-13T09:36:57;22.80;96.60
6110;DHT22;3085;49.444;11.054;2023-07-13T09:39:27;22.90;96.60
6110;DHT22;3085;49.444;11.054;2023-07-13T09:41:59;22.80;96.60
6110;DHT22;3085;49.444;11.054;2023-07-13T09:44:30;22.90;95.50
6110;DHT22;3085;49.444;11.054;2023-07-13T09:46:58;22.10;95.10
6110;DHT22;3085;49.444;11.054;2023-07-13T09:49:26;22.90;94.90
6110;DHT22;3085;49.444;11.054;2023-07-13T09:52:00;23.30;94.40
6110;DHT22;3085;49.444;11.054;2023-07-13T09:54:28;23.10;93.90
6110;DHT22;3085;49.444;11.054;2023-07-13T09:56:56;23.10;93.60
6110;DHT22;3085;49.444;11.054;2023-07-13T09:59:26;23.10;93.30
6110;DHT22;3085;49.444;11.054;2023-07-13T10:01:54;23.20;92.80
6110;DHT22;3085;49.444;11.054;2023-07-13T10:04:28;23.30;92.40
6110;DHT22;3085;49.444;11.054;2023-07-13T10:07:05;23.50;92.60
6110;DHT22;3085;49.444;11.054;2023-07-13T10:09:32;23.60;92.90
6110;DHT22;3085;49.444;11.054;2023-07-13T10:11:59;23.40;92.60
6110;DHT22;3085;49.444;11.054;2023-07-13T10:14:27;23.40;92.40
6110;DHT22;3085;49.444;11.054;2023-07-13T10:16:59;23.30;91.80
6110;DHT22;3085;49.444;11.054;2023-07-13T10:19:31;22.80;92.10
6110;DHT22;3085;49.444;11.054;2023-07-13T10:22:02;23.00;92.60
6110;DHT22;3085;49.444;11.054;2023-07-13T10:24:31;23.10;93.10
6110;DHT22;3085;49.444;11.054;2023-07-13T10:27:01;22.90;93.10
6110;DHT22;3085;49.444;11.054;2023-07-13T10:29:35;23.40;93.10
6110;DHT22;3085;49.444;11.054;2023-07-13T10:32:04;23.60;92.50
6110;DHT22;3085;49.444;11.054;2023-07-13T10:34:35;23.60;92.30
6110;DHT22;3085;49.444;11.054;2023-07-13T10:37:05;23.80;92.30
6110;DHT22;3085;49.444;11.054;2023-07-13T10:39:35;22.70;91.70
6110;DHT22;3085;49.444;11.054;2023-07-13T10:42:05;23.90;92.00
6110;DHT22;3085;49.444;11.054;2023-07-13T10:44:33;23.90;92.30
6110;DHT22;3085;49.444;11.054;2023-07-13T10:47:02;23.80;92.20
6110;DHT22;3085;49.444;11.054;2023-07-13T10:49:31;23.90;91.80
6110;DHT22;3085;49.444;11.054;2023-07-13T10:51:58;23.50;91.50
6110;DHT22;3085;49.444;11.054;2023-07-13T10:54:32;23.60;91.80
6110;DHT22;3085;49.444;11.054;2023-07-13T10:57:17;23.30;92.00
6110;DHT22;3085;49.444;11.054;2023-07-13T10:59:47;23.70;91.90
6110;DHT22;3085;49.444;11.054;2023-07-13T11:02:22;23.70;91.60
6110;DHT22;3085;49.444;11.054;2023-07-13T11:04:53;24.80;92.10
6110;DHT22;3085;49.444;11.054;2023-07-13T11:07:22;24.30;91.60
6110;DHT22;3085;49.444;11.054;2023-07-13T11:09:52;24.20;91.60
6110;DHT22;3085;49.444;11.054;2023-07-13T11:12:49;24.10;91.80
6110;DHT22;3085;49.444;11.054;2023-07-13T11:15:30;24.00;92.00
6110;DHT22;3085;49.444;11.054;2023-07-13T11:17:57;24.10;92.30
6110;DHT22;3085;49.444;11.054;2023-07-13T11:20:34;23.80;91.90
6110;DHT22;3085;49.444;11.054;2023-07-13T11:23:18;24.00;92.40
6110;DHT22;3085;49.444;11.054;2023-07-13T11:25:47;24.20;92.10
6110;DHT22;3085;49.444;11.054;2023-07-13T11:28:21;24.10;91.90
6110;DHT22;3085;49.444;11.054;2023-07-13T11:30:49;23.80;92.00
6110;DHT22;3085;49.444;11.054;2023-07-13T11:33:30;23.00;91.60
6110;DHT22;3085;49.444;11.054;2023-07-13T11:36:13;23.80;91.90
6110;DHT22;3085;49.444;11.054;2023-07-13T11:38:42;24.10;91.90
6110;DHT22;3085;49.444;11.054;2023-07-13T11:41:15;24.30;91.80
6110;DHT22;3085;49.444;11.054;2023-07-13T11:43:44;24.40;90.90
6110;DHT22;3085;49.444;11.054;2023-07-13T11:46:15;24.30;91.00
6110;DHT22;3085;49.444;11.054;2023-07-13T11:48:45;24.50;90.60
6110;DHT22;3085;49.444;11.054;2023-07-13T11:51:19;24.60;90.80
6110;DHT22;3085;49.444;11.054;2023-07-13T11:53:49;24.70;90.50
6110;DHT22;3085;49.444;11.054;2023-07-13T11:56:18;24.70;90.20
6110;DHT22;3085;49.444;11.054;2023-07-13T11:58:48;24.60;90.10
6110;DHT22;3085;49.444;11.054;2023-07-13T12:01:18;24.20;90.10
6110;DHT22;3085;49.444;11.054;2023-07-13T12:03:47;24.80;90.70
6110;DHT22;3085;49.444;11.054;2023-07-13T12:06:25;24.10;90.60
6110;DHT22;3085;49.444;11.054;2023-07-13T12:08:56;24.60;91.70
6110;DHT22;3085;49.444;11.054;2023-07-13T12:11:25;24.40;91.90
6110;DHT22;3085;49.444;11.054;2023-07-13T12:13:52;24.20;91.70
6110;DHT22;3085;49.444;11.054;2023-07-13T12:16:25;24.20;91.70
6110;DHT22;3085;49.444;11.054;2023-07-13T12:18:54;24.30;91.80
6110;DHT22;3085;49.444;11.054;2023-07-13T12:21:27;24.40;91.70
6110;DHT22;3085;49.444;11.054;2023-07-13T12:23:56;24.60;91.70
6110;DHT22;3085;49.444;11.054;2023-07-13T12:26:24;24.90;92.00
6110;DHT22;3085;49.444;11.054;2023-07-13T12:28:53;26.20;92.00
6110;DHT22;3085;49.444;11.054;2023-07-13T12:31:29;24.70;91.40
6110;DHT22;3085;49.444;11.054;2023-07-13T12:33:59;24.60;91.70
6110;DHT22;3085;49.444;11.054;2023-07-13T12:36:31;24.80;92.10
6110;DHT22;3085;49.444;11.054;2023-07-13T12:39:03;25.80;91.90
6110;DHT22;3085;49.444;11.054;2023-07-13T12:41:33;24.90;91.80
6110;DHT22;3085;49.444;11.054;2023-07-13T12:44:00;25.10;91.60
6110;DHT22;3085;49.444;11.054;2023-07-13T12:46:27;25.10;91.50
6110;DHT22;3085;49.444;11.054;2023-07-13T12:48:59;25.10;91.60
6110;DHT22;3085;49.444;11.054;2023-07-13T12:51:27;25.10;91.30
6110;DHT22;3085;49.444;11.054;2023-07-13T12:54:05;25.20;91.10
6110;DHT22;3085;49.444;11.054;2023-07-13T12:56:34;25.00;90.60
6110;DHT22;3085;49.444;11.054;2023-07-13T12:59:02;25.10;90.60
6110;DHT22;3085;49.444;11.054;2023-07-13T13:01:34;24.90;90.90
6110;DHT22;3085;49.444;11.054;2023-07-13T13:04:03;25.10;91.10
6110;DHT22;3085;49.444;11.054;2023-07-13T13:06:32;25.30;91.10
6110;DHT22;3085;49.444;11.054;2023-07-13T13:09:02;25.20;90.60
6110;DHT22;3085;49.444;11.054;2023-07-13T13:11:31;25.30;90.90
6110;DHT22;3085;49.444;11.054;2023-07-13T13:14:02;25.30;91.10
6110;DHT22;3085;49.444;11.054;2023-07-13T13:16:31;25.50;90.90
6110;DHT22;3085;49.444;11.054;2023-07-13T13:19:08;25.40;90.70
6110;DHT22;3085;49.444;11.054;2023-07-13T13:21:36;25.60;90.90
6110;DHT22;3085;49.444;11.054;2023-07-13T13:24:08;25.70;90.70
6110;DHT22;3085;49.444;11.054;2023-07-13T13:26:36;25.40;90.90
6110;DHT22;3085;49.444;11.054;2023-07-13T13:29:11;25.30;90.80
6110;DHT22;3085;49.444;11.054;2023-07-13T13:31:39;25.20;90.90
6110;DHT22;3085;49.444;11.054;2023-07-13T13:34:08;25.10;91.10
6110;DHT22;3085;49.444;11.054;2023-07-13T13:36:36;25.20;91.10
6110;DHT22;3085;49.444;11.054;2023-07-13T13:39:10;25.50;91.20
6110;DHT22;3085;49.444;11.054;2023-07-13T13:41:43;25.60;90.90
6110;DHT22;3085;49.444;11.054;2023-07-13T13:44:17;25.70;90.80
6110;DHT22;3085;49.444;11.054;2023-07-13T13:46:46;25.30;90.80
6110;DHT22;3085;49.444;11.054;2023-07-13T13:49:15;25.20;90.60
6110;DHT22;3085;49.444;11.054;2023-07-13T13:51:44;25.10;90.50
6110;DHT22;3085;49.444;11.054;2023-07-13T13:54:12;25.50;90.10
6110;DHT22;3085;49.444;11.054;2023-07-13T13:56:41;25.70;90.40
6110;DHT22;3085;49.444;11.054;2023-07-13T13:59:08;25.40;90.20
6110;DHT22;3085;49.444;11.054;2023-07-13T14:01:37;25.20;90.20
6110;DHT22;3085;49.444;11.054;2023-07-13T14:04:04;25.10;90.30
6110;DHT22;3085;49.444;11.054;2023-07-13T14:06:32;24.90;90.30
6110;DHT22;3085;49.444;11.054;2023-07-13T14:08:59;24.90;90.40
6110;DHT22;3085;49.444;11.054;2023-07-13T14:11:26;25.00;90.90
6110;DHT22;3085;49.444;11.054;2023-07-13T14:13:55;25.00;90.70
6110;DHT22;3085;49.444;11.054;2023-07-13T14:16:26;25.30;91.20
6110;DHT22;3085;49.444;11.054;2023-07-13T14:18:56;25.70;91.20
6110;DHT22;3085;49.444;11.054;2023-07-13T14:21:26;25.60;90.40
6110;DHT22;3085;49.444;11.054;2023-07-13T14:23:52;25.80;90.40
6110;DHT22;3085;49.444;11.054;2023-07-13T14:26:21;25.90;89.40
6110;DHT22;3085;49.444;11.054;2023-07-13T14:28:50;25.80;89.10
6110;DHT22;3085;49.444;11.054;2023-07-13T14:31:18;25.50;89.70
6110;DHT22;3085;49.444;11.054;2023-07-13T14:33:45;25.40;89.20
6110;DHT22;3085;49.444;11.054;2023-07-13T14:36:25;25.50;89.10
6110;DHT22;3085;49.444;11.054;2023-07-13T14:38:53;25.50;88.90
6110;DHT22;3085;49.444;11.054;2023-07-13T14:41:20;25.50;90.20
6110;DHT22;3085;49.444;11.054;2023-07-13T14:43:47;25.60;89.30
6110;DHT22;3085;49.444;11.054;2023-07-13T14:46:25;25.50;89.30
6110;DHT22;3085;49.444;11.054;2023-07-13T14:48:58;25.70;88.70
6110;DHT22;3085;49.444;11.054;2023-07-13T14:51:28;25.50;86.80
6110;DHT22;3085;49.444;11.054;2023-07-13T14:53:55;26.30;87.10
6110;DHT22;3085;49.444;11.054;2023-07-13T14:56:22;25.80;85.30
6110;DHT22;3085;49.444;11.054;2023-07-13T14:58:48;25.90;84.90
6110;DHT22;3085;49.444;11.054;2023-07-13T15:01:15;26.00;85.40
6110;DHT22;3085;49.444;11.054;2023-07-13T15:03:47;25.90;85.20
6110;DHT22;3085;49.444;11.054;2023-07-13T15:06:14;25.80;83.40
6110;DHT22;3085;49.444;11.054;2023-07-13T15:08:42;25.70;83.60
6110;DHT22;3085;49.444;11.054;2023-07-13T15:11:09;25.80;82.60
6110;DHT22;3085;49.444;11.054;2023-07-13T15:13:38;25.60;83.50
6110;DHT22;3085;49.444;11.054;2023-07-13T15:16:13;25.60;84.90
6110;DHT22;3085;49.444;11.054;2023-07-13T15:18:42;25.70;85.40
6110;DHT22;3085;49.444;11.054;2023-07-13T15:21:11;25.70;85.10
6110;DHT22;3085;49.444;11.054;2023-07-13T15:23:41;25.90;84.40
6110;DHT22;3085;49.444;11.054;2023-07-13T15:26:11;25.80;83.30
6110;DHT22;3085;49.444;11.054;2023-07-13T15:28:39;25.50;83.00
6110;DHT22;3085;49.444;11.054;2023-07-13T15:31:17;25.80;84.30
6110;DHT22;3085;49.444;11.054;2023-07-13T15:33:44;26.00;83.80
6110;DHT22;3085;49.444;11.054;2023-07-13T15:36:13;25.90;83.20
6110;DHT22;3085;49.444;11.054;2023-07-13T15:38:41;25.80;84.20
6110;DHT22;3085;49.444;11.054;2023-07-13T15:41:16;26.10;85.10
6110;DHT22;3085;49.444;11.054;2023-07-13T15:43:43;26.20;85.10
6110;DHT22;3085;49.444;11.054;2023-07-13T15:46:10;26.20;83.70
6110;DHT22;3085;49.444;11.054;2023-07-13T15:48:37;26.00;84.10
6110;DHT22;3085;49.444;11.054;2023-07-13T15:51:08;26.70;84.70
6110;DHT22;3085;49.444;11.054;2023-07-13T15:53:38;26.00;84.50
6110;DHT22;3085;49.444;11.054;2023-07-13T15:56:17;25.60;84.60
6110;DHT22;3085;49.444;11.054;2023-07-13T15:58:44;25.20;85.00
6110;DHT22;3085;49.444;11.054;2023-07-13T16:01:12;25.30;85.90